マカオ国際空港の過去48時間の天気

マカオ国際空港 (Taipa)

現在時刻: 8/14 06:39 CST (8/13 22:39 UTC) 以下の時間は現地時間です。

過去48時間のMETAR気象情報
時間 風向 風速(m/s) 視程 気温(℃) 湿度(%) 気圧(hPa) 天気現象
14 06:00 不定 1 10km以上 28 94 1007
14 05:30 南西 2 10km以上 28 94 1007
14 05:00 南西 3 10km以上 28 89 1006
14 04:30 南南西 2 10km以上 27 100 1007
14 04:00 南南西 3 10km以上 27 94 1007
VMMC 132200Z VRB02KT 9999 FEW010 28/27 Q1007 NOSIG
VMMC 132130Z 23004KT 9999 FEW008 SCT020 28/27 Q1007 NOSIG
VMMC 132100Z 23005KT 9999 FEW008 SCT020 28/26 Q1006 NOSIG
VMMC 132030Z 20004KT 9999 FEW008 SCT020 27/27 Q1007 NOSIG
VMMC 132000Z 20005KT 9999 FEW008 SCT020 27/26 Q1007 NOSIG